sensor_id;sensor_type;location;lat;lon;timestamp;P1;durP1;ratioP1;P2;durP2;ratioP2
15848;SDS011;8024;48.708;9.394;2022-09-30T00:00:40;5.63;;;4.57;;
15848;SDS011;8024;48.708;9.394;2022-09-30T00:03:07;4.10;;;3.80;;
15848;SDS011;8024;48.708;9.394;2022-09-30T00:05:34;4.93;;;4.30;;
15848;SDS011;8024;48.708;9.394;2022-09-30T00:08:01;6.50;;;4.63;;
15848;SDS011;8024;48.708;9.394;2022-09-30T00:10:28;5.93;;;4.87;;
15848;SDS011;8024;48.708;9.394;2022-09-30T00:12:56;4.57;;;4.10;;
15848;SDS011;8024;48.708;9.394;2022-09-30T00:15:24;4.87;;;4.37;;
15848;SDS011;8024;48.708;9.394;2022-09-30T00:17:52;4.67;;;4.27;;
15848;SDS011;8024;48.708;9.394;2022-09-30T00:20:19;4.37;;;3.97;;
15848;SDS011;8024;48.708;9.394;2022-09-30T00:22:46;6.27;;;4.63;;
15848;SDS011;8024;48.708;9.394;2022-09-30T00:25:14;4.63;;;4.20;;
15848;SDS011;8024;48.708;9.394;2022-09-30T00:27:41;5.77;;;4.80;;
15848;SDS011;8024;48.708;9.394;2022-09-30T00:30:08;9.40;;;4.70;;
15848;SDS011;8024;48.708;9.394;2022-09-30T00:32:37;6.33;;;4.60;;
15848;SDS011;8024;48.708;9.394;2022-09-30T00:35:04;6.17;;;5.23;;
15848;SDS011;8024;48.708;9.394;2022-09-30T00:37:32;5.17;;;4.20;;
15848;SDS011;8024;48.708;9.394;2022-09-30T00:39:59;5.20;;;4.70;;
15848;SDS011;8024;48.708;9.394;2022-09-30T00:42:26;5.00;;;4.50;;
15848;SDS011;8024;48.708;9.394;2022-09-30T00:44:55;5.07;;;4.57;;
15848;SDS011;8024;48.708;9.394;2022-09-30T00:47:32;6.50;;;4.33;;
15848;SDS011;8024;48.708;9.394;2022-09-30T00:50:09;7.70;;;5.40;;
15848;SDS011;8024;48.708;9.394;2022-09-30T00:52:42;6.03;;;4.97;;
15848;SDS011;8024;48.708;9.394;2022-09-30T00:55:14;5.97;;;5.43;;
15848;SDS011;8024;48.708;9.394;2022-09-30T00:57:47;5.43;;;4.97;;
15848;SDS011;8024;48.708;9.394;2022-09-30T01:00:14;6.17;;;5.57;;
15848;SDS011;8024;48.708;9.394;2022-09-30T01:02:42;7.47;;;5.37;;
15848;SDS011;8024;48.708;9.394;2022-09-30T01:05:11;5.47;;;4.97;;
15848;SDS011;8024;48.708;9.394;2022-09-30T01:07:38;5.83;;;5.27;;
15848;SDS011;8024;48.708;9.394;2022-09-30T01:10:06;6.20;;;4.60;;
15848;SDS011;8024;48.708;9.394;2022-09-30T01:12:33;5.93;;;5.20;;
15848;SDS011;8024;48.708;9.394;2022-09-30T01:15:01;5.67;;;5.17;;
15848;SDS011;8024;48.708;9.394;2022-09-30T01:17:33;5.10;;;4.60;;
15848;SDS011;8024;48.708;9.394;2022-09-30T01:20:10;5.27;;;4.77;;
15848;SDS011;8024;48.708;9.394;2022-09-30T01:22:54;4.43;;;4.07;;
15848;SDS011;8024;48.708;9.394;2022-09-30T01:25:39;8.17;;;5.00;;
15848;SDS011;8024;48.708;9.394;2022-09-30T01:28:29;5.27;;;4.70;;
15848;SDS011;8024;48.708;9.394;2022-09-30T01:31:09;4.87;;;4.43;;
15848;SDS011;8024;48.708;9.394;2022-09-30T01:33:49;5.13;;;4.57;;
15848;SDS011;8024;48.708;9.394;2022-09-30T01:36:24;4.37;;;3.97;;
15848;SDS011;8024;48.708;9.394;2022-09-30T01:39:05;4.07;;;3.77;;
15848;SDS011;8024;48.708;9.394;2022-09-30T01:41:41;5.83;;;4.27;;
15848;SDS011;8024;48.708;9.394;2022-09-30T01:44:17;5.03;;;4.50;;
15848;SDS011;8024;48.708;9.394;2022-09-30T01:46:51;4.73;;;4.10;;
15848;SDS011;8024;48.708;9.394;2022-09-30T01:49:25;4.83;;;4.33;;
15848;SDS011;8024;48.708;9.394;2022-09-30T01:51:57;4.80;;;4.27;;
15848;SDS011;8024;48.708;9.394;2022-09-30T01:54:29;4.17;;;3.87;;
15848;SDS011;8024;48.708;9.394;2022-09-30T01:57:01;4.43;;;4.03;;
15848;SDS011;8024;48.708;9.394;2022-09-30T01:59:33;6.03;;;4.47;;
15848;SDS011;8024;48.708;9.394;2022-09-30T02:02:07;5.27;;;4.77;;
15848;SDS011;8024;48.708;9.394;2022-09-30T02:04:36;6.20;;;4.80;;
15848;SDS011;8024;48.708;9.394;2022-09-30T02:07:09;7.50;;;5.27;;
15848;SDS011;8024;48.708;9.394;2022-09-30T02:09:40;5.43;;;4.83;;
15848;SDS011;8024;48.708;9.394;2022-09-30T02:12:12;5.83;;;5.23;;
15848;SDS011;8024;48.708;9.394;2022-09-30T02:14:41;5.83;;;5.20;;
15848;SDS011;8024;48.708;9.394;2022-09-30T02:17:13;6.27;;;5.20;;
15848;SDS011;8024;48.708;9.394;2022-09-30T02:19:46;5.83;;;5.30;;
15848;SDS011;8024;48.708;9.394;2022-09-30T02:22:17;7.40;;;5.77;;
15848;SDS011;8024;48.708;9.394;2022-09-30T02:24:48;5.83;;;5.33;;
15848;SDS011;8024;48.708;9.394;2022-09-30T02:27:18;5.60;;;5.10;;
15848;SDS011;8024;48.708;9.394;2022-09-30T02:29:54;5.00;;;4.50;;
15848;SDS011;8024;48.708;9.394;2022-09-30T02:32:28;8.20;;;5.47;;
15848;SDS011;8024;48.708;9.394;2022-09-30T02:34:59;5.47;;;4.87;;
15848;SDS011;8024;48.708;9.394;2022-09-30T02:37:30;6.57;;;5.50;;
15848;SDS011;8024;48.708;9.394;2022-09-30T02:40:01;5.50;;;4.87;;
15848;SDS011;8024;48.708;9.394;2022-09-30T02:42:33;6.07;;;5.47;;
15848;SDS011;8024;48.708;9.394;2022-09-30T02:45:01;5.93;;;5.43;;
15848;SDS011;8024;48.708;9.394;2022-09-30T02:47:36;7.07;;;5.33;;
15848;SDS011;8024;48.708;9.394;2022-09-30T02:50:12;6.43;;;5.83;;
15848;SDS011;8024;48.708;9.394;2022-09-30T02:52:48;7.47;;;6.00;;
15848;SDS011;8024;48.708;9.394;2022-09-30T02:55:24;6.70;;;5.97;;
15848;SDS011;8024;48.708;9.394;2022-09-30T02:57:56;6.77;;;6.07;;
15848;SDS011;8024;48.708;9.394;2022-09-30T03:00:25;7.50;;;6.80;;
15848;SDS011;8024;48.708;9.394;2022-09-30T03:02:56;6.07;;;5.47;;
15848;SDS011;8024;48.708;9.394;2022-09-30T03:05:28;6.57;;;5.60;;
15848;SDS011;8024;48.708;9.394;2022-09-30T03:07:55;6.53;;;5.77;;
15848;SDS011;8024;48.708;9.394;2022-09-30T03:10:22;6.50;;;5.90;;
15848;SDS011;8024;48.708;9.394;2022-09-30T03:12:55;6.33;;;5.73;;
15848;SDS011;8024;48.708;9.394;2022-09-30T03:15:39;7.33;;;6.53;;
15848;SDS011;8024;48.708;9.394;2022-09-30T03:18:17;6.83;;;5.90;;
15848;SDS011;8024;48.708;9.394;2022-09-30T03:21:00;8.33;;;6.23;;
15848;SDS011;8024;48.708;9.394;2022-09-30T03:23:49;6.97;;;5.93;;
15848;SDS011;8024;48.708;9.394;2022-09-30T03:26:37;7.00;;;6.30;;
15848;SDS011;8024;48.708;9.394;2022-09-30T03:29:15;7.33;;;6.37;;
15848;SDS011;8024;48.708;9.394;2022-09-30T03:31:49;6.63;;;5.97;;
15848;SDS011;8024;48.708;9.394;2022-09-30T03:34:26;7.93;;;6.60;;
15848;SDS011;8024;48.708;9.394;2022-09-30T03:36:58;6.83;;;6.13;;
15848;SDS011;8024;48.708;9.394;2022-09-30T03:39:31;7.73;;;5.20;;
15848;SDS011;8024;48.708;9.394;2022-09-30T03:42:12;6.63;;;6.03;;
15848;SDS011;8024;48.708;9.394;2022-09-30T03:44:46;7.63;;;6.83;;
15848;SDS011;8024;48.708;9.394;2022-09-30T03:47:26;7.47;;;6.33;;
15848;SDS011;8024;48.708;9.394;2022-09-30T03:49:57;7.43;;;6.20;;
15848;SDS011;8024;48.708;9.394;2022-09-30T03:52:29;8.93;;;6.23;;
15848;SDS011;8024;48.708;9.394;2022-09-30T03:54:57;6.07;;;5.47;;
15848;SDS011;8024;48.708;9.394;2022-09-30T03:57:26;7.57;;;6.37;;
15848;SDS011;8024;48.708;9.394;2022-09-30T03:59:54;7.20;;;6.53;;
15848;SDS011;8024;48.708;9.394;2022-09-30T04:02:21;7.17;;;6.40;;
15848;SDS011;8024;48.708;9.394;2022-09-30T04:04:48;8.37;;;7.50;;
15848;SDS011;8024;48.708;9.394;2022-09-30T04:07:17;8.43;;;7.03;;
15848;SDS011;8024;48.708;9.394;2022-09-30T04:09:44;8.20;;;7.40;;
15848;SDS011;8024;48.708;9.394;2022-09-30T04:12:11;9.57;;;7.20;;
15848;SDS011;8024;48.708;9.394;2022-09-30T04:14:39;9.53;;;7.53;;
15848;SDS011;8024;48.708;9.394;2022-09-30T04:17:06;9.67;;;7.93;;
15848;SDS011;8024;48.708;9.394;2022-09-30T04:19:33;10.47;;;8.37;;
15848;SDS011;8024;48.708;9.394;2022-09-30T04:22:04;10.27;;;8.87;;
15848;SDS011;8024;48.708;9.394;2022-09-30T04:24:33;11.57;;;10.13;;
15848;SDS011;8024;48.708;9.394;2022-09-30T04:27:01;10.37;;;8.93;;
15848;SDS011;8024;48.708;9.394;2022-09-30T04:29:28;12.40;;;9.27;;
15848;SDS011;8024;48.708;9.394;2022-09-30T04:31:55;11.30;;;8.13;;
15848;SDS011;8024;48.708;9.394;2022-09-30T04:34:23;10.47;;;8.20;;
15848;SDS011;8024;48.708;9.394;2022-09-30T04:36:50;9.23;;;7.90;;
15848;SDS011;8024;48.708;9.394;2022-09-30T04:39:17;11.63;;;9.37;;
15848;SDS011;8024;48.708;9.394;2022-09-30T04:41:46;11.30;;;8.77;;
15848;SDS011;8024;48.708;9.394;2022-09-30T04:44:14;11.23;;;8.60;;
15848;SDS011;8024;48.708;9.394;2022-09-30T04:46:41;10.53;;;8.73;;
15848;SDS011;8024;48.708;9.394;2022-09-30T04:49:08;9.47;;;8.47;;
15848;SDS011;8024;48.708;9.394;2022-09-30T04:51:35;11.90;;;8.87;;
15848;SDS011;8024;48.708;9.394;2022-09-30T04:54:07;10.40;;;8.97;;
15848;SDS011;8024;48.708;9.394;2022-09-30T04:56:35;12.60;;;9.90;;
15848;SDS011;8024;48.708;9.394;2022-09-30T04:59:03;12.87;;;9.97;;
15848;SDS011;8024;48.708;9.394;2022-09-30T05:01:31;13.07;;;9.70;;
15848;SDS011;8024;48.708;9.394;2022-09-30T05:03:58;12.37;;;9.50;;
15848;SDS011;8024;48.708;9.394;2022-09-30T05:06:25;13.33;;;10.07;;
15848;SDS011;8024;48.708;9.394;2022-09-30T05:08:53;12.17;;;9.70;;
15848;SDS011;8024;48.708;9.394;2022-09-30T05:11:20;10.87;;;9.03;;
15848;SDS011;8024;48.708;9.394;2022-09-30T05:13:48;10.50;;;8.90;;
15848;SDS011;8024;48.708;9.394;2022-09-30T05:16:17;9.77;;;8.37;;
15848;SDS011;8024;48.708;9.394;2022-09-30T05:18:44;10.13;;;8.30;;
15848;SDS011;8024;48.708;9.394;2022-09-30T05:21:12;10.97;;;8.00;;
15848;SDS011;8024;48.708;9.394;2022-09-30T05:23:39;10.10;;;8.07;;
15848;SDS011;8024;48.708;9.394;2022-09-30T05:26:06;9.87;;;8.33;;
15848;SDS011;8024;48.708;9.394;2022-09-30T05:28:34;10.83;;;8.37;;
15848;SDS011;8024;48.708;9.394;2022-09-30T05:31:02;8.93;;;7.83;;
15848;SDS011;8024;48.708;9.394;2022-09-30T05:33:31;9.77;;;8.20;;
15848;SDS011;8024;48.708;9.394;2022-09-30T05:36:00;9.20;;;8.30;;
15848;SDS011;8024;48.708;9.394;2022-09-30T05:38:29;8.13;;;6.87;;
15848;SDS011;8024;48.708;9.394;2022-09-30T05:40:56;9.27;;;7.50;;
15848;SDS011;8024;48.708;9.394;2022-09-30T05:43:23;10.47;;;7.77;;
15848;SDS011;8024;48.708;9.394;2022-09-30T05:45:51;9.60;;;8.27;;
15848;SDS011;8024;48.708;9.394;2022-09-30T05:48:19;8.10;;;7.30;;
15848;SDS011;8024;48.708;9.394;2022-09-30T05:50:50;8.07;;;6.97;;
15848;SDS011;8024;48.708;9.394;2022-09-30T05:53:19;9.13;;;7.77;;
15848;SDS011;8024;48.708;9.394;2022-09-30T05:55:47;7.67;;;6.93;;
15848;SDS011;8024;48.708;9.394;2022-09-30T05:58:15;8.27;;;7.47;;
15848;SDS011;8024;48.708;9.394;2022-09-30T06:00:43;8.30;;;6.97;;
15848;SDS011;8024;48.708;9.394;2022-09-30T06:03:11;7.33;;;6.63;;
15848;SDS011;8024;48.708;9.394;2022-09-30T06:05:39;7.50;;;6.60;;
15848;SDS011;8024;48.708;9.394;2022-09-30T06:08:08;7.57;;;6.80;;
15848;SDS011;8024;48.708;9.394;2022-09-30T06:10:38;7.23;;;6.43;;
15848;SDS011;8024;48.708;9.394;2022-09-30T06:13:06;8.57;;;7.70;;
15848;SDS011;8024;48.708;9.394;2022-09-30T06:15:33;12.10;;;8.53;;
15848;SDS011;8024;48.708;9.394;2022-09-30T06:18:02;11.10;;;7.97;;
15848;SDS011;8024;48.708;9.394;2022-09-30T06:20:29;14.90;;;9.27;;
15848;SDS011;8024;48.708;9.394;2022-09-30T06:22:59;10.73;;;8.77;;
15848;SDS011;8024;48.708;9.394;2022-09-30T06:25:29;13.73;;;9.13;;
15848;SDS011;8024;48.708;9.394;2022-09-30T06:27:56;14.33;;;8.23;;
15848;SDS011;8024;48.708;9.394;2022-09-30T06:30:24;16.80;;;8.17;;
15848;SDS011;8024;48.708;9.394;2022-09-30T06:32:51;8.50;;;7.70;;
15848;SDS011;8024;48.708;9.394;2022-09-30T06:35:22;10.40;;;7.63;;
15848;SDS011;8024;48.708;9.394;2022-09-30T06:37:51;10.60;;;7.47;;
15848;SDS011;8024;48.708;9.394;2022-09-30T06:40:18;9.10;;;7.10;;
15848;SDS011;8024;48.708;9.394;2022-09-30T06:42:47;7.93;;;7.17;;
15848;SDS011;8024;48.708;9.394;2022-09-30T06:45:14;11.03;;;8.07;;
15848;SDS011;8024;48.708;9.394;2022-09-30T06:47:43;10.67;;;8.40;;
15848;SDS011;8024;48.708;9.394;2022-09-30T06:50:13;12.40;;;7.47;;
15848;SDS011;8024;48.708;9.394;2022-09-30T06:52:40;11.67;;;8.67;;
15848;SDS011;8024;48.708;9.394;2022-09-30T06:55:07;9.67;;;8.23;;
15848;SDS011;8024;48.708;9.394;2022-09-30T06:57:34;12.23;;;8.37;;
15848;SDS011;8024;48.708;9.394;2022-09-30T07:00:03;10.10;;;8.57;;
15848;SDS011;8024;48.708;9.394;2022-09-30T07:02:31;10.20;;;8.00;;
15848;SDS011;8024;48.708;9.394;2022-09-30T07:04:59;9.33;;;8.23;;
15848;SDS011;8024;48.708;9.394;2022-09-30T07:07:27;8.30;;;7.50;;
15848;SDS011;8024;48.708;9.394;2022-09-30T07:09:58;11.60;;;9.37;;
15848;SDS011;8024;48.708;9.394;2022-09-30T07:12:25;10.37;;;8.53;;
15848;SDS011;8024;48.708;9.394;2022-09-30T07:14:53;11.10;;;9.07;;
15848;SDS011;8024;48.708;9.394;2022-09-30T07:17:22;10.50;;;9.13;;
15848;SDS011;8024;48.708;9.394;2022-09-30T07:19:49;10.17;;;9.07;;
15848;SDS011;8024;48.708;9.394;2022-09-30T07:22:17;11.10;;;9.45;;
15848;SDS011;8024;48.708;9.394;2022-09-30T07:24:54;11.33;;;8.40;;
15848;SDS011;8024;48.708;9.394;2022-09-30T07:27:22;8.60;;;7.77;;
15848;SDS011;8024;48.708;9.394;2022-09-30T07:29:50;9.20;;;8.20;;
15848;SDS011;8024;48.708;9.394;2022-09-30T07:32:17;10.67;;;7.67;;
15848;SDS011;8024;48.708;9.394;2022-09-30T07:34:46;9.67;;;8.40;;
15848;SDS011;8024;48.708;9.394;2022-09-30T07:37:15;11.07;;;8.03;;
15848;SDS011;8024;48.708;9.394;2022-09-30T07:39:44;9.83;;;8.43;;
15848;SDS011;8024;48.708;9.394;2022-09-30T07:42:13;9.20;;;8.20;;
15848;SDS011;8024;48.708;9.394;2022-09-30T07:44:43;9.57;;;8.53;;
15848;SDS011;8024;48.708;9.394;2022-09-30T07:47:11;11.37;;;8.43;;
15848;SDS011;8024;48.708;9.394;2022-09-30T07:49:39;9.50;;;8.50;;
15848;SDS011;8024;48.708;9.394;2022-09-30T07:52:09;9.77;;;8.77;;
15848;SDS011;8024;48.708;9.394;2022-09-30T07:54:37;10.90;;;9.17;;
15848;SDS011;8024;48.708;9.394;2022-09-30T07:57:06;12.33;;;9.67;;
15848;SDS011;8024;48.708;9.394;2022-09-30T07:59:34;9.97;;;8.17;;
15848;SDS011;8024;48.708;9.394;2022-09-30T08:02:03;11.23;;;9.60;;
15848;SDS011;8024;48.708;9.394;2022-09-30T08:04:31;9.60;;;8.70;;
15848;SDS011;8024;48.708;9.394;2022-09-30T08:07:00;9.83;;;8.83;;
15848;SDS011;8024;48.708;9.394;2022-09-30T08:09:30;10.50;;;8.57;;
15848;SDS011;8024;48.708;9.394;2022-09-30T08:11:57;10.33;;;9.03;;
15848;SDS011;8024;48.708;9.394;2022-09-30T08:14:26;11.40;;;9.07;;
15848;SDS011;8024;48.708;9.394;2022-09-30T08:16:54;10.87;;;9.27;;
15848;SDS011;8024;48.708;9.394;2022-09-30T08:19:22;11.67;;;9.20;;
15848;SDS011;8024;48.708;9.394;2022-09-30T08:21:51;11.63;;;9.17;;
15848;SDS011;8024;48.708;9.394;2022-09-30T08:24:18;12.50;;;9.07;;
15848;SDS011;8024;48.708;9.394;2022-09-30T08:26:47;11.93;;;9.77;;
15848;SDS011;8024;48.708;9.394;2022-09-30T08:29:14;10.80;;;9.70;;
15848;SDS011;8024;48.708;9.394;2022-09-30T08:31:42;9.53;;;8.53;;
15848;SDS011;8024;48.708;9.394;2022-09-30T08:34:09;10.77;;;8.67;;
15848;SDS011;8024;48.708;9.394;2022-09-30T08:36:36;10.53;;;9.20;;
15848;SDS011;8024;48.708;9.394;2022-09-30T08:39:03;11.53;;;9.50;;
15848;SDS011;8024;48.708;9.394;2022-09-30T08:44:40;10.47;;;9.23;;
15848;SDS011;8024;48.708;9.394;2022-09-30T08:47:15;9.77;;;8.50;;
15848;SDS011;8024;48.708;9.394;2022-09-30T08:50:02;10.83;;;9.73;;
15848;SDS011;8024;48.708;9.394;2022-09-30T08:52:35;11.17;;;9.23;;
15848;SDS011;8024;48.708;9.394;2022-09-30T08:55:07;11.13;;;10.03;;
15848;SDS011;8024;48.708;9.394;2022-09-30T08:57:42;10.20;;;9.10;;
15848;SDS011;8024;48.708;9.394;2022-09-30T09:00:11;12.57;;;9.47;;
15848;SDS011;8024;48.708;9.394;2022-09-30T09:02:42;10.83;;;9.73;;
15848;SDS011;8024;48.708;9.394;2022-09-30T09:05:14;10.20;;;9.20;;
15848;SDS011;8024;48.708;9.394;2022-09-30T09:07:49;9.97;;;8.97;;
15848;SDS011;8024;48.708;9.394;2022-09-30T09:10:24;10.87;;;9.80;;
15848;SDS011;8024;48.708;9.394;2022-09-30T09:13:02;11.60;;;9.60;;
15848;SDS011;8024;48.708;9.394;2022-09-30T09:15:41;11.90;;;9.83;;
15848;SDS011;8024;48.708;9.394;2022-09-30T09:18:19;11.00;;;9.97;;
15848;SDS011;8024;48.708;9.394;2022-09-30T09:20:58;10.43;;;9.33;;
15848;SDS011;8024;48.708;9.394;2022-09-30T09:23:29;11.17;;;9.23;;
15848;SDS011;8024;48.708;9.394;2022-09-30T09:25:57;12.13;;;9.30;;
15848;SDS011;8024;48.708;9.394;2022-09-30T09:28:29;9.50;;;8.20;;
15848;SDS011;8024;48.708;9.394;2022-09-30T09:31:01;9.43;;;8.47;;
15848;SDS011;8024;48.708;9.394;2022-09-30T09:33:29;9.73;;;8.50;;
15848;SDS011;8024;48.708;9.394;2022-09-30T09:36:00;9.60;;;8.73;;
15848;SDS011;8024;48.708;9.394;2022-09-30T09:38:39;9.10;;;7.77;;
15848;SDS011;8024;48.708;9.394;2022-09-30T09:41:18;8.57;;;7.77;;
15848;SDS011;8024;48.708;9.394;2022-09-30T09:43:54;9.67;;;8.63;;
15848;SDS011;8024;48.708;9.394;2022-09-30T09:46:26;9.37;;;8.30;;
15848;SDS011;8024;48.708;9.394;2022-09-30T09:52:22;9.13;;;7.77;;
15848;SDS011;8024;48.708;9.394;2022-09-30T09:55:14;8.40;;;7.20;;
15848;SDS011;8024;48.708;9.394;2022-09-30T09:57:46;7.40;;;6.70;;
15848;SDS011;8024;48.708;9.394;2022-09-30T10:00:23;7.40;;;6.70;;
15848;SDS011;8024;48.708;9.394;2022-09-30T10:03:20;6.43;;;5.80;;
15848;SDS011;8024;48.708;9.394;2022-09-30T10:06:00;6.70;;;6.00;;
15848;SDS011;8024;48.708;9.394;2022-09-30T10:08:30;5.80;;;5.07;;
15848;SDS011;8024;48.708;9.394;2022-09-30T10:10:59;5.47;;;4.70;;
15848;SDS011;8024;48.708;9.394;2022-09-30T10:13:28;3.87;;;3.47;;
15848;SDS011;8024;48.708;9.394;2022-09-30T10:15:59;4.67;;;4.27;;
15848;SDS011;8024;48.708;9.394;2022-09-30T10:18:27;4.10;;;3.80;;
15848;SDS011;8024;48.708;9.394;2022-09-30T10:20:57;4.87;;;4.30;;
15848;SDS011;8024;48.708;9.394;2022-09-30T10:23:27;7.57;;;5.20;;
15848;SDS011;8024;48.708;9.394;2022-09-30T10:25:57;4.27;;;3.87;;
15848;SDS011;8024;48.708;9.394;2022-09-30T10:28:28;3.47;;;3.17;;
15848;SDS011;8024;48.708;9.394;2022-09-30T10:30:59;3.33;;;3.03;;
15848;SDS011;8024;48.708;9.394;2022-09-30T10:33:29;3.63;;;2.37;;
15848;SDS011;8024;48.708;9.394;2022-09-30T10:36:10;2.93;;;2.70;;
15848;SDS011;8024;48.708;9.394;2022-09-30T10:38:51;2.93;;;2.63;;
15848;SDS011;8024;48.708;9.394;2022-09-30T10:41:23;3.57;;;2.97;;
15848;SDS011;8024;48.708;9.394;2022-09-30T10:43:53;4.10;;;2.80;;
15848;SDS011;8024;48.708;9.394;2022-09-30T10:46:23;3.57;;;3.30;;
15848;SDS011;8024;48.708;9.394;2022-09-30T10:48:52;4.77;;;4.27;;
15848;SDS011;8024;48.708;9.394;2022-09-30T10:51:22;4.57;;;3.20;;
15848;SDS011;8024;48.708;9.394;2022-09-30T10:53:52;3.87;;;3.50;;
15848;SDS011;8024;48.708;9.394;2022-09-30T10:56:37;3.23;;;2.20;;
15848;SDS011;8024;48.708;9.394;2022-09-30T10:59:10;2.37;;;2.20;;
15848;SDS011;8024;48.708;9.394;2022-09-30T11:01:47;2.73;;;2.50;;
15848;SDS011;8024;48.708;9.394;2022-09-30T11:04:21;2.60;;;2.27;;
15848;SDS011;8024;48.708;9.394;2022-09-30T11:06:53;2.57;;;1.80;;
15848;SDS011;8024;48.708;9.394;2022-09-30T11:09:28;1.53;;;1.37;;
15848;SDS011;8024;48.708;9.394;2022-09-30T11:12:01;1.60;;;1.50;;
15848;SDS011;8024;48.708;9.394;2022-09-30T11:14:37;3.33;;;2.37;;
15848;SDS011;8024;48.708;9.394;2022-09-30T11:17:14;2.23;;;1.70;;
15848;SDS011;8024;48.708;9.394;2022-09-30T11:20:04;2.17;;;1.90;;
15848;SDS011;8024;48.708;9.394;2022-09-30T11:22:41;2.00;;;1.90;;
15848;SDS011;8024;48.708;9.394;2022-09-30T11:25:13;2.00;;;1.67;;
15848;SDS011;8024;48.708;9.394;2022-09-30T11:27:59;2.00;;;1.90;;
15848;SDS011;8024;48.708;9.394;2022-09-30T11:30:48;2.93;;;2.20;;
15848;SDS011;8024;48.708;9.394;2022-09-30T11:33:27;2.43;;;2.23;;
15848;SDS011;8024;48.708;9.394;2022-09-30T11:36:03;2.13;;;1.63;;
15848;SDS011;8024;48.708;9.394;2022-09-30T11:38:50;1.20;;;0.90;;
15848;SDS011;8024;48.708;9.394;2022-09-30T11:41:35;1.20;;;0.50;;
15848;SDS011;8024;48.708;9.394;2022-09-30T11:44:12;1.87;;;1.17;;
15848;SDS011;8024;48.708;9.394;2022-09-30T11:46:50;2.30;;;1.10;;
15848;SDS011;8024;48.708;9.394;2022-09-30T11:49:33;1.40;;;1.27;;
15848;SDS011;8024;48.708;9.394;2022-09-30T11:52:20;1.73;;;0.93;;
15848;SDS011;8024;48.708;9.394;2022-09-30T11:54:59;1.47;;;1.37;;
15848;SDS011;8024;48.708;9.394;2022-09-30T11:57:36;2.77;;;1.20;;
15848;SDS011;8024;48.708;9.394;2022-09-30T12:00:11;1.87;;;1.13;;
15848;SDS011;8024;48.708;9.394;2022-09-30T12:02:42;1.27;;;1.10;;
15848;SDS011;8024;48.708;9.394;2022-09-30T12:05:15;1.17;;;0.90;;
15848;SDS011;8024;48.708;9.394;2022-09-30T12:07:46;0.90;;;0.73;;
15848;SDS011;8024;48.708;9.394;2022-09-30T12:10:18;3.97;;;1.60;;
15848;SDS011;8024;48.708;9.394;2022-09-30T12:12:48;1.30;;;1.00;;
15848;SDS011;8024;48.708;9.394;2022-09-30T12:15:19;1.77;;;1.03;;
15848;SDS011;8024;48.708;9.394;2022-09-30T12:17:49;1.40;;;0.80;;
15848;SDS011;8024;48.708;9.394;2022-09-30T12:20:25;0.60;;;0.57;;
15848;SDS011;8024;48.708;9.394;2022-09-30T12:22:56;0.60;;;0.60;;
15848;SDS011;8024;48.708;9.394;2022-09-30T12:25:30;1.40;;;0.60;;
15848;SDS011;8024;48.708;9.394;2022-09-30T12:28:03;1.90;;;0.77;;
15848;SDS011;8024;48.708;9.394;2022-09-30T12:30:47;1.83;;;0.70;;
15848;SDS011;8024;48.708;9.394;2022-09-30T12:33:24;1.07;;;0.80;;
15848;SDS011;8024;48.708;9.394;2022-09-30T12:39:10;1.10;;;0.83;;
15848;SDS011;8024;48.708;9.394;2022-09-30T12:42:07;1.37;;;1.00;;
15848;SDS011;8024;48.708;9.394;2022-09-30T12:44:49;1.17;;;0.60;;
15848;SDS011;8024;48.708;9.394;2022-09-30T12:47:35;1.27;;;0.50;;
15848;SDS011;8024;48.708;9.394;2022-09-30T12:50:11;2.10;;;0.60;;
15848;SDS011;8024;48.708;9.394;2022-09-30T12:52:40;0.47;;;0.40;;
15848;SDS011;8024;48.708;9.394;2022-09-30T12:55:14;1.60;;;0.60;;
15848;SDS011;8024;48.708;9.394;2022-09-30T12:57:52;0.80;;;0.43;;
15848;SDS011;8024;48.708;9.394;2022-09-30T13:00:21;1.13;;;0.60;;
15848;SDS011;8024;48.708;9.394;2022-09-30T13:02:52;1.13;;;0.50;;
15848;SDS011;8024;48.708;9.394;2022-09-30T13:05:43;2.07;;;0.73;;
15848;SDS011;8024;48.708;9.394;2022-09-30T13:08:24;1.63;;;0.40;;
15848;SDS011;8024;48.708;9.394;2022-09-30T13:11:20;2.47;;;0.43;;
15848;SDS011;8024;48.708;9.394;2022-09-30T13:14:02;1.03;;;0.30;;
15848;SDS011;8024;48.708;9.394;2022-09-30T13:16:58;0.23;;;0.23;;
15848;SDS011;8024;48.708;9.394;2022-09-30T13:19:32;1.63;;;0.30;;
15848;SDS011;8024;48.708;9.394;2022-09-30T13:25:17;1.63;;;0.40;;
15848;SDS011;8024;48.708;9.394;2022-09-30T13:27:47;0.97;;;0.30;;
15848;SDS011;8024;48.708;9.394;2022-09-30T13:33:28;1.20;;;0.30;;
15848;SDS011;8024;48.708;9.394;2022-09-30T13:36:06;0.50;;;0.40;;
15848;SDS011;8024;48.708;9.394;2022-09-30T13:41:47;0.50;;;0.50;;
15848;SDS011;8024;48.708;9.394;2022-09-30T13:44:27;0.40;;;0.30;;
15848;SDS011;8024;48.708;9.394;2022-09-30T13:46:59;0.33;;;0.30;;
15848;SDS011;8024;48.708;9.394;2022-09-30T13:49:39;0.97;;;0.30;;
15848;SDS011;8024;48.708;9.394;2022-09-30T13:52:10;2.03;;;0.40;;
15848;SDS011;8024;48.708;9.394;2022-09-30T13:54:45;0.30;;;0.30;;
15848;SDS011;8024;48.708;9.394;2022-09-30T13:57:15;0.30;;;0.30;;
15848;SDS011;8024;48.708;9.394;2022-09-30T13:59:49;0.97;;;0.20;;
15848;SDS011;8024;48.708;9.394;2022-09-30T14:02:32;0.40;;;0.30;;
15848;SDS011;8024;48.708;9.394;2022-09-30T14:05:31;0.30;;;0.30;;
15848;SDS011;8024;48.708;9.394;2022-09-30T14:08:11;0.53;;;0.30;;
15848;SDS011;8024;48.708;9.394;2022-09-30T14:11:06;0.60;;;0.50;;
15848;SDS011;8024;48.708;9.394;2022-09-30T14:13:46;0.87;;;0.30;;
15848;SDS011;8024;48.708;9.394;2022-09-30T14:16:41;1.93;;;0.47;;
15848;SDS011;8024;48.708;9.394;2022-09-30T14:19:29;0.77;;;0.40;;
15848;SDS011;8024;48.708;9.394;2022-09-30T14:22:06;1.13;;;0.57;;
15848;SDS011;8024;48.708;9.394;2022-09-30T14:24:35;1.40;;;0.63;;
15848;SDS011;8024;48.708;9.394;2022-09-30T14:29:59;1.00;;;0.37;;
15848;SDS011;8024;48.708;9.394;2022-09-30T14:32:31;0.87;;;0.57;;
15848;SDS011;8024;48.708;9.394;2022-09-30T14:35:10;1.73;;;0.37;;
15848;SDS011;8024;48.708;9.394;2022-09-30T14:37:43;0.30;;;0.30;;
15848;SDS011;8024;48.708;9.394;2022-09-30T14:40:14;1.80;;;1.13;;
15848;SDS011;8024;48.708;9.394;2022-09-30T14:42:43;0.30;;;0.30;;
15848;SDS011;8024;48.708;9.394;2022-09-30T14:45:13;0.53;;;0.30;;
15848;SDS011;8024;48.708;9.394;2022-09-30T14:47:48;0.83;;;0.40;;
15848;SDS011;8024;48.708;9.394;2022-09-30T14:50:17;0.83;;;0.30;;
15848;SDS011;8024;48.708;9.394;2022-09-30T14:52:49;3.20;;;0.40;;
15848;SDS011;8024;48.708;9.394;2022-09-30T14:55:22;0.40;;;0.20;;
15848;SDS011;8024;48.708;9.394;2022-09-30T14:57:52;1.33;;;0.30;;
15848;SDS011;8024;48.708;9.394;2022-09-30T15:00:26;0.47;;;0.30;;
15848;SDS011;8024;48.708;9.394;2022-09-30T15:02:56;0.77;;;0.23;;
15848;SDS011;8024;48.708;9.394;2022-09-30T15:05:24;1.57;;;0.30;;
15848;SDS011;8024;48.708;9.394;2022-09-30T15:07:52;0.87;;;0.30;;
15848;SDS011;8024;48.708;9.394;2022-09-30T15:10:21;0.70;;;0.30;;
15848;SDS011;8024;48.708;9.394;2022-09-30T15:12:49;2.40;;;0.50;;
15848;SDS011;8024;48.708;9.394;2022-09-30T15:15:26;0.83;;;0.40;;
15848;SDS011;8024;48.708;9.394;2022-09-30T15:18:04;0.57;;;0.40;;
15848;SDS011;8024;48.708;9.394;2022-09-30T15:20:51;1.33;;;0.40;;
15848;SDS011;8024;48.708;9.394;2022-09-30T15:23:20;1.40;;;0.50;;
15848;SDS011;8024;48.708;9.394;2022-09-30T15:25:51;0.50;;;0.47;;
15848;SDS011;8024;48.708;9.394;2022-09-30T15:28:18;1.43;;;0.60;;
15848;SDS011;8024;48.708;9.394;2022-09-30T15:30:46;0.50;;;0.50;;
15848;SDS011;8024;48.708;9.394;2022-09-30T15:33:17;0.70;;;0.53;;
15848;SDS011;8024;48.708;9.394;2022-09-30T15:35:48;0.70;;;0.30;;
15848;SDS011;8024;48.708;9.394;2022-09-30T15:38:16;1.17;;;0.30;;
15848;SDS011;8024;48.708;9.394;2022-09-30T15:40:46;1.97;;;0.60;;
15848;SDS011;8024;48.708;9.394;2022-09-30T15:43:29;1.77;;;0.70;;
15848;SDS011;8024;48.708;9.394;2022-09-30T15:46:13;0.60;;;0.33;;
15848;SDS011;8024;48.708;9.394;2022-09-30T15:48:52;2.53;;;0.43;;
15848;SDS011;8024;48.708;9.394;2022-09-30T15:57:00;1.87;;;0.67;;